Time;durP1;ratioP1;P1;durP2;ratioP2;P2;SDS_P1;SDS_P2;PMS_P1;PMS_P2;Temp;Humidity;BMP_temperature;BMP_pressure;BME280_temperature;BME280_humidity;BME280_pressure;Samples;Min_cycle;Max_cycle;Signal;HPM_P1;HPM_P2
2021/10/08 00:01:21;;;;;;;;;15.75;10.75;;;;;14.91;63.75;102521.63;4955050;28;45475;-58
2021/10/08 00:03:47;;;;;;;;;11.75;11.25;;;;;14.88;63.98;102519.13;4951998;28;45458;-57
2021/10/08 00:06:14;;;;;;;;;13.00;12.00;;;;;14.85;64.26;102515.75;4959834;28;45448;-57
2021/10/08 00:08:41;;;;;;;;;13.25;11.50;;;;;14.84;63.97;102520.19;4952646;28;45484;-56
2021/10/08 00:11:06;;;;;;;;;12.25;10.75;;;;;14.80;64.32;102523.94;4954955;28;45363;-57
2021/10/08 00:13:32;;;;;;;;;12.75;11.50;;;;;14.77;64.45;102521.44;4959304;28;45459;-57
2021/10/08 00:15:57;;;;;;;;;12.25;11.25;;;;;14.73;64.19;102527.84;4956861;28;45350;-58
2021/10/08 00:18:23;;;;;;;;;12.00;11.75;;;;;14.72;64.42;102520.81;4955170;28;46149;-57
2021/10/08 00:20:48;;;;;;;;;12.25;11.00;;;;;14.68;64.36;102519.22;4951751;28;45503;-56
2021/10/08 00:23:14;;;;;;;;;12.00;11.00;;;;;14.64;64.46;102520.31;4952640;28;45456;-57
2021/10/08 00:25:39;;;;;;;;;14.75;11.50;;;;;14.60;64.43;102524.03;4954079;28;45734;-57
2021/10/08 00:28:06;;;;;;;;;11.50;11.50;;;;;14.56;64.58;102525.13;4956819;28;45636;-57
2021/10/08 00:30:32;;;;;;;;;11.75;11.00;;;;;14.54;64.46;102527.88;4952973;28;45339;-57
2021/10/08 00:32:57;;;;;;;;;9.50;8.00;;;;;14.56;64.44;102525.13;4941647;28;45619;-57
2021/10/08 00:35:23;;;;;;;;;12.25;7.50;;;;;14.57;64.41;102525.06;4943090;28;45577;-57
2021/10/08 00:37:50;;;;;;;;;14.25;9.75;;;;;14.61;64.70;102529.25;4951235;28;45387;-56
2021/10/08 00:40:16;;;;;;;;;11.00;8.50;;;;;14.59;64.77;102527.63;4963369;28;45386;-56
2021/10/08 00:42:45;;;;;;;;;13.75;11.00;;;;;14.57;64.96;102533.00;4962005;28;45395;-57
2021/10/08 00:45:11;;;;;;;;;8.50;7.25;;;;;14.50;64.72;102531.56;4954041;28;45360;-56
2021/10/08 00:47:37;;;;;;;;;10.50;9.75;;;;;14.45;65.14;102536.19;4960531;28;45422;-57
2021/10/08 00:50:05;;;;;;;;;10.00;8.25;;;;;14.39;65.03;102533.84;4946854;28;45353;-56
2021/10/08 00:52:31;;;;;;;;;9.75;9.75;;;;;14.35;65.15;102535.75;4960929;28;45274;-57
2021/10/08 00:54:56;;;;;;;;;11.00;11.00;;;;;14.30;65.62;102532.50;4963189;28;45586;-57
2021/10/08 00:57:22;;;;;;;;;16.50;14.00;;;;;14.26;65.83;102536.19;4963030;28;45352;-57
2021/10/08 00:59:49;;;;;;;;;13.50;11.75;;;;;14.22;66.18;102542.59;4962885;28;45352;-56
2021/10/08 01:02:15;;;;;;;;;16.25;13.75;;;;;14.19;66.16;102542.69;4962900;28;45332;-56
2021/10/08 01:04:41;;;;;;;;;15.00;14.00;;;;;14.15;66.42;102549.09;4962367;28;45539;-56
2021/10/08 01:07:07;;;;;;;;;16.00;13.00;;;;;14.09;66.32;102547.56;4962740;28;45421;-56
2021/10/08 01:09:32;;;;;;;;;13.00;11.00;;;;;14.05;66.53;102543.31;4962942;28;45286;-56
2021/10/08 01:11:58;;;;;;;;;18.50;12.75;;;;;14.01;66.57;102543.53;4962698;28;45221;-57
2021/10/08 01:14:23;;;;;;;;;15.00;13.00;;;;;14.00;66.17;102542.69;4962939;28;45452;-55
2021/10/08 01:16:49;;;;;;;;;17.00;15.00;;;;;13.97;66.33;102540.16;4962688;28;45440;-59
2021/10/08 01:19:14;;;;;;;;;15.25;14.00;;;;;13.96;66.42;102541.94;4962703;28;45318;-56
2021/10/08 01:21:40;;;;;;;;;15.00;11.25;;;;;13.94;66.25;102535.88;4962748;28;45291;-56
2021/10/08 01:24:06;;;;;;;;;20.00;17.50;;;;;13.95;66.51;102534.94;4962732;28;45204;-57
2021/10/08 01:26:31;;;;;;;;;19.25;15.25;;;;;13.94;66.54;102527.91;4962586;28;45400;-57
2021/10/08 01:28:57;;;;;;;;;17.00;14.50;;;;;13.93;66.57;102534.16;4962315;28;45353;-56
2021/10/08 01:31:22;;;;;;;;;20.00;14.50;;;;;13.91;66.69;102528.06;4962554;28;45256;-56
2021/10/08 01:33:48;;;;;;;;;19.50;14.75;;;;;13.86;66.57;102530.03;4962262;28;45354;-57
2021/10/08 01:36:13;;;;;;;;;18.50;14.50;;;;;13.83;66.57;102532.00;4962357;28;46005;-56
2021/10/08 01:38:39;;;;;;;;;23.00;18.50;;;;;13.79;66.91;102527.75;4962455;28;45428;-56
2021/10/08 01:41:04;;;;;;;;;18.75;17.00;;;;;13.77;66.91;102534.91;4962621;28;45243;-56
2021/10/08 01:43:30;;;;;;;;;20.25;17.25;;;;;13.74;67.05;102533.22;4943390;28;45310;-55
2021/10/08 01:45:55;;;;;;;;;16.50;13.00;;;;;13.70;67.08;102526.34;4942887;28;45412;-56
2021/10/08 01:48:21;;;;;;;;;20.25;18.25;;;;;13.67;67.15;102535.31;4942870;28;45293;-52
2021/10/08 01:50:47;;;;;;;;;18.50;17.50;;;;;13.64;67.41;102535.41;4956295;28;45243;-56
2021/10/08 01:53:12;;;;;;;;;23.00;17.25;;;;;13.62;67.38;102536.41;4946373;28;45254;-57
2021/10/08 01:55:38;;;;;;;;;22.00;19.25;;;;;13.59;67.29;102540.06;4942760;28;45394;-57
2021/10/08 01:58:03;;;;;;;;;16.75;12.25;;;;;13.61;67.53;102540.00;4942775;28;45236;-54
2021/10/08 02:00:29;;;;;;;;;17.75;17.75;;;;;13.61;67.37;102537.34;4942690;28;45282;-56
2021/10/08 02:02:55;;;;;;;;;17.75;17.75;;;;;13.58;67.51;102533.03;4942750;28;45365;-58
2021/10/08 02:05:20;;;;;;;;;18.75;17.00;;;;;13.55;67.86;102537.59;4942362;28;46307;-56
2021/10/08 02:07:47;;;;;;;;;20.50;19.50;;;;;13.53;67.78;102537.69;4942545;28;45310;-56
2021/10/08 02:10:13;;;;;;;;;15.75;14.25;;;;;13.52;68.24;102540.41;4942836;28;45503;-57
2021/10/08 02:12:39;;;;;;;;;19.25;17.25;;;;;13.54;68.34;102534.09;4942608;28;45338;-56
2021/10/08 02:15:05;;;;;;;;;15.00;13.75;;;;;13.60;68.31;102535.63;4942125;28;45429;-56
2021/10/08 02:17:30;;;;;;;;;17.00;14.75;;;;;13.61;68.17;102527.63;4942415;28;45263;-56
2021/10/08 02:19:55;;;;;;;;;16.00;14.00;;;;;13.61;68.03;102535.56;4942349;28;45360;-56
2021/10/08 02:22:21;;;;;;;;;18.00;15.00;;;;;13.60;68.26;102535.63;4942462;28;45326;-56
2021/10/08 02:24:47;;;;;;;;;15.50;12.50;;;;;13.59;68.28;102532.13;4942678;28;45954;-57
2021/10/08 02:27:12;;;;;;;;;20.00;17.50;;;;;13.58;68.37;102533.03;4942347;28;45418;-56
2021/10/08 02:29:38;;;;;;;;;20.75;16.75;;;;;13.56;68.58;102536.69;4957063;28;45271;-56
2021/10/08 02:32:03;;;;;;;;;19.00;13.00;;;;;13.56;68.44;102532.25;4942143;28;45564;-56
2021/10/08 02:34:29;;;;;;;;;15.50;14.75;;;;;13.55;68.68;102529.66;4941517;28;45959;-55
2021/10/08 02:36:55;;;;;;;;;20.25;17.25;;;;;13.51;68.70;102531.59;4942127;28;45679;-57
2021/10/08 02:39:20;;;;;;;;;15.00;15.00;;;;;13.46;69.10;102530.94;4957643;28;45629;-57
2021/10/08 02:41:46;;;;;;;;;16.75;14.00;;;;;13.46;68.81;102525.63;4951644;28;45486;-56
2021/10/08 02:44:11;;;;;;;;;16.50;16.00;;;;;13.44;68.72;102530.13;4952562;28;45407;-56
2021/10/08 02:46:37;;;;;;;;;10.50;9.00;;;;;13.41;69.03;102535.53;4942098;28;45483;-56
2021/10/08 02:49:03;;;;;;;;;15.25;12.50;;;;;13.41;69.04;102532.91;4942300;28;45413;-56
2021/10/08 02:51:33;;;;;;;;;17.50;13.50;;;;;13.39;68.76;102530.31;4958198;28;45411;-57
2021/10/08 02:53:59;;;;;;;;;16.75;13.75;;;;;13.39;68.83;102529.47;4942065;28;45392;-57
2021/10/08 02:56:24;;;;;;;;;21.75;12.25;;;;;13.37;68.75;102532.19;4940486;28;45379;-56
2021/10/08 02:58:49;;;;;;;;;17.00;15.25;;;;;13.37;68.86;102536.63;4942143;28;45342;-56
2021/10/08 03:01:15;;;;;;;;;14.50;12.75;;;;;13.37;69.02;102533.97;4941992;28;46280;-56
2021/10/08 03:03:41;;;;;;;;;13.50;13.00;;;;;13.39;69.00;102532.97;4941147;28;46088;-55
2021/10/08 03:06:06;;;;;;;;;17.00;14.00;;;;;13.40;68.87;102539.13;4941048;28;45394;-56
2021/10/08 03:08:31;;;;;;;;;14.75;12.00;;;;;13.39;69.02;102530.31;4942308;28;45419;-54
2021/10/08 03:10:57;;;;;;;;;18.25;13.50;;;;;13.41;68.97;102528.47;4941729;28;45331;-55
2021/10/08 03:13:22;;;;;;;;;13.00;11.75;;;;;13.45;68.74;102531.00;4941851;28;45423;-57
2021/10/08 03:15:48;;;;;;;;;14.25;12.50;;;;;13.49;68.76;102535.22;4941606;28;45315;-56
2021/10/08 03:18:13;;;;;;;;;15.25;14.25;;;;;13.49;68.71;102530.78;4941894;28;45472;-56
2021/10/08 03:20:39;;;;;;;;;16.50;15.25;;;;;13.44;68.86;102530.13;4941945;28;45270;-56
2021/10/08 03:23:04;;;;;;;;;17.00;13.75;;;;;13.44;68.69;102531.94;4941657;28;46134;-57
2021/10/08 03:25:30;;;;;;;;;22.50;18.00;;;;;13.41;68.88;102531.09;4941550;28;45334;-56
2021/10/08 03:27:55;;;;;;;;;20.00;16.75;;;;;13.38;68.75;102535.69;4944982;28;45312;-57
2021/10/08 03:30:21;;;;;;;;;21.50;15.75;;;;;13.34;68.88;102534.94;4944832;28;45374;-56
2021/10/08 03:32:46;;;;;;;;;22.50;15.00;;;;;13.30;69.03;102532.50;4943491;28;45355;-57
2021/10/08 03:35:12;;;;;;;;;18.75;14.25;;;;;13.31;68.77;102536.88;4944781;28;45509;-56
2021/10/08 03:37:53;;;;;;;;;18.00;18.00;;;;;13.30;69.07;102538.66;4946842;28;45278;-56
2021/10/08 03:40:24;;;;;;;;;24.00;17.00;;;;;13.32;68.93;102536.78;4964313;28;45452;-57
2021/10/08 03:42:50;;;;;;;;;21.25;18.50;;;;;13.32;68.99;102543.88;4950233;28;45303;-57
2021/10/08 03:45:16;;;;;;;;;20.25;17.00;;;;;13.35;69.03;102541.09;4944676;28;45590;-56
2021/10/08 03:47:56;;;;;;;;;19.75;14.50;;;;;13.37;68.84;102536.63;4944907;28;45270;-56
2021/10/08 03:50:22;;;;;;;;;21.25;17.75;;;;;13.35;69.00;102531.41;4954718;28;45524;-56
2021/10/08 03:52:48;;;;;;;;;26.50;22.25;;;;;13.33;69.08;102535.88;4951774;28;45994;-56
2021/10/08 03:55:14;;;;;;;;;22.50;21.50;;;;;13.29;68.91;102541.38;4944586;28;45319;-57
2021/10/08 03:57:40;;;;;;;;;26.25;21.00;;;;;13.25;69.07;102539.75;4944702;28;45475;-56
2021/10/08 04:00:06;;;;;;;;;18.25;16.75;;;;;13.23;69.03;102542.47;4944637;28;45323;-56
2021/10/08 04:02:32;;;;;;;;;21.50;21.25;;;;;13.21;69.04;102538.19;4944604;28;45797;-56
2021/10/08 04:04:57;;;;;;;;;21.25;18.75;;;;;13.19;69.07;102540.84;4944289;28;45325;-56
2021/10/08 04:07:23;;;;;;;;;26.00;23.75;;;;;13.20;69.47;102539.97;4944751;28;45237;-55
2021/10/08 04:09:48;;;;;;;;;21.00;18.25;;;;;13.21;69.06;102544.34;4944510;28;45382;-56
2021/10/08 04:12:14;;;;;;;;;24.00;22.25;;;;;13.20;69.15;102542.63;4944183;28;45473;-56
2021/10/08 04:14:39;;;;;;;;;26.00;24.75;;;;;13.17;69.25;102547.97;4943829;28;45330;-57
2021/10/08 04:17:05;;;;;;;;;27.50;20.50;;;;;13.14;69.13;102548.97;4944391;28;45318;-56
2021/10/08 04:19:30;;;;;;;;;23.00;19.50;;;;;13.13;69.22;102552.56;4944182;28;45393;-57
2021/10/08 04:21:56;;;;;;;;;20.00;17.50;;;;;13.12;69.40;102545.53;4944057;28;45798;-56
2021/10/08 04:24:21;;;;;;;;;24.75;22.00;;;;;13.12;69.36;102548.19;4944034;28;45274;-56
2021/10/08 04:26:47;;;;;;;;;24.75;21.50;;;;;13.09;69.39;102548.28;4944388;28;45341;-57
2021/10/08 04:29:12;;;;;;;;;21.00;16.75;;;;;13.04;69.33;102555.59;4943962;28;45369;-56
2021/10/08 04:31:38;;;;;;;;;20.75;18.00;;;;;13.01;69.57;102547.75;4942640;28;46736;-56
2021/10/08 04:34:03;;;;;;;;;23.50;19.75;;;;;12.98;69.57;102550.53;4943730;28;45289;-57
2021/10/08 04:36:29;;;;;;;;;23.75;21.00;;;;;12.98;69.81;102549.66;4944291;28;45219;-56
2021/10/08 04:38:55;;;;;;;;;22.75;18.75;;;;;12.96;69.71;102557.69;4950240;28;45417;-55
2021/10/08 04:41:20;;;;;;;;;20.50;19.25;;;;;12.95;69.98;102561.22;4953396;28;46389;-56
2021/10/08 04:43:46;;;;;;;;;22.25;19.00;;;;;12.94;70.01;102558.63;4961291;28;45490;-56
2021/10/08 04:46:11;;;;;;;;;24.25;19.25;;;;;12.91;70.05;102551.69;4963490;28;45207;-57
2021/10/08 04:48:37;;;;;;;;;25.00;21.25;;;;;12.88;70.01;102551.84;4963016;28;45222;-56
2021/10/08 04:51:02;;;;;;;;;28.00;22.50;;;;;12.86;70.18;102551.00;4947372;28;45845;-56
2021/10/08 04:53:28;;;;;;;;;22.25;18.25;;;;;12.86;70.06;102553.66;4943653;28;45280;-56
2021/10/08 04:55:53;;;;;;;;;21.00;19.00;;;;;12.86;70.14;102557.16;4943763;28;45324;-56
2021/10/08 04:58:19;;;;;;;;;20.50;17.75;;;;;12.89;70.01;102557.97;4943693;28;45316;-56
2021/10/08 05:00:48;;;;;;;;;30.75;22.75;;;;;12.90;70.17;102562.34;4943387;28;45323;-56
2021/10/08 05:03:16;;;;;;;;;26.75;20.00;;;;;12.97;70.09;102558.53;4943381;28;45481;-56
2021/10/08 05:05:48;;;;;;;;;22.00;18.00;;;;;12.98;70.00;102544.38;4943604;28;45300;-56
2021/10/08 05:08:17;;;;;;;;;33.25;24.25;;;;;13.02;69.83;102549.47;4943307;28;45258;-57
2021/10/08 05:10:43;;;;;;;;;31.25;20.50;;;;;13.01;69.99;102550.41;4947513;28;45486;-56
2021/10/08 05:13:09;;;;;;;;;29.25;24.00;;;;;13.00;69.95;102555.75;4956545;28;45361;-58
2021/10/08 05:15:34;;;;;;;;;26.25;24.50;;;;;12.98;70.12;102561.13;4943534;28;45265;-57
2021/10/08 05:18:00;;;;;;;;;31.00;23.25;;;;;12.96;69.94;102560.31;4943428;28;45396;-57
2021/10/08 05:20:26;;;;;;;;;28.50;23.00;;;;;12.93;69.91;102568.38;4943195;28;45502;-56
2021/10/08 05:22:51;;;;;;;;;24.50;23.00;;;;;12.89;70.30;102561.50;4943284;28;45267;-56
2021/10/08 05:25:17;;;;;;;;;35.25;30.75;;;;;12.89;70.13;102563.28;4943386;28;45361;-56
2021/10/08 05:27:43;;;;;;;;;30.50;23.00;;;;;12.93;70.06;102565.72;4943308;28;45406;-57
2021/10/08 05:30:10;;;;;;;;;22.75;21.50;;;;;12.96;70.24;102565.63;4942959;28;45517;-55
2021/10/08 05:32:35;;;;;;;;;20.75;20.00;;;;;12.94;70.05;102564.78;4942861;28;45331;-56
2021/10/08 05:35:00;;;;;;;;;33.25;22.00;;;;;12.91;70.09;102556.13;4942766;28;45281;-61
2021/10/08 05:37:26;;;;;;;;;26.25;18.00;;;;;12.89;70.21;102565.91;4943031;28;45555;-56
2021/10/08 05:39:52;;;;;;;;;23.25;23.25;;;;;12.84;70.17;102561.66;4962577;28;45471;-57
2021/10/08 05:42:17;;;;;;;;;29.00;25.75;;;;;12.86;70.40;102569.53;4952718;28;45500;-54
2021/10/08 05:44:42;;;;;;;;;24.25;21.75;;;;;12.84;70.24;102566.09;4942790;28;45425;-58
2021/10/08 05:47:08;;;;;;;;;21.00;20.75;;;;;12.83;70.41;102570.50;4943097;28;45528;-58
2021/10/08 05:49:34;;;;;;;;;20.25;18.00;;;;;12.83;70.33;102572.31;4945951;28;45933;-58
2021/10/08 05:51:59;;;;;;;;;25.50;24.75;;;;;12.84;70.40;102574.88;4956267;28;45330;-58
2021/10/08 05:54:25;;;;;;;;;27.25;20.00;;;;;12.82;70.28;102560.00;4951590;28;45290;-58
2021/10/08 05:56:50;;;;;;;;;30.00;26.25;;;;;12.80;70.17;102569.78;4952456;28;45427;-58
2021/10/08 05:59:15;;;;;;;;;28.75;26.25;;;;;12.85;70.27;102573.94;4952729;28;45986;-58
2021/10/08 06:01:42;;;;;;;;;33.25;25.50;;;;;12.86;70.07;102573.03;4955569;28;45259;-58
2021/10/08 06:04:08;;;;;;;;;24.25;21.50;;;;;12.89;70.27;102576.50;4951170;28;45489;-59
2021/10/08 06:06:34;;;;;;;;;25.50;22.75;;;;;12.88;70.36;102577.44;4954557;28;45488;-59
2021/10/08 06:09:01;;;;;;;;;29.50;23.75;;;;;12.83;70.27;102573.16;4955340;28;45584;-60
2021/10/08 06:11:28;;;;;;;;;26.75;23.50;;;;;12.81;70.54;102579.44;4951965;28;45306;-59
2021/10/08 06:13:54;;;;;;;;;54.75;33.50;;;;;12.81;70.38;102574.16;4952987;28;45398;-59
2021/10/08 06:16:19;;;;;;;;;28.50;24.25;;;;;12.79;70.33;102573.31;4955927;28;45499;-59
2021/10/08 06:18:45;;;;;;;;;28.00;22.75;;;;;12.79;70.56;102589.19;4950415;28;45566;-58
2021/10/08 06:21:10;;;;;;;;;31.50;25.25;;;;;12.76;70.47;102584.03;4954640;28;45587;-59
2021/10/08 06:23:36;;;;;;;;;26.75;22.75;;;;;12.76;70.45;102594.63;4953205;28;45440;-59
2021/10/08 06:26:01;;;;;;;;;29.50;23.25;;;;;12.74;70.69;102593.81;4951947;28;45567;-59
2021/10/08 06:28:27;;;;;;;;;31.50;24.50;;;;;12.75;70.61;102598.19;4951437;28;45512;-60
2021/10/08 06:30:53;;;;;;;;;34.75;27.50;;;;;12.74;70.66;102593.81;4953307;28;45442;-59
2021/10/08 06:33:18;;;;;;;;;30.00;25.00;;;;;12.76;70.52;102595.47;4965920;28;45517;-60
2021/10/08 06:35:44;;;;;;;;;33.75;30.00;;;;;12.76;70.41;102590.19;4949879;28;45360;-59
2021/10/08 06:38:10;;;;;;;;;39.75;29.50;;;;;12.80;70.54;102597.09;4954515;28;45426;-59
2021/10/08 06:40:37;;;;;;;;;28.50;24.75;;;;;12.84;70.45;102597.81;4952169;28;45230;-59
2021/10/08 06:43:04;;;;;;;;;32.75;23.75;;;;;12.86;70.33;102606.56;4953460;28;45297;-59
2021/10/08 06:45:30;;;;;;;;;31.00;22.00;;;;;12.87;70.39;102600.34;4953451;28;45445;-60
2021/10/08 06:47:56;;;;;;;;;29.00;24.75;;;;;12.87;70.40;102597.69;4950368;28;45254;-59
2021/10/08 06:50:21;;;;;;;;;26.75;25.50;;;;;12.84;70.25;102601.31;4953580;28;45467;-59
2021/10/08 06:52:47;;;;;;;;;24.75;19.00;;;;;12.84;70.32;102598.69;4954587;28;45249;-59
2021/10/08 06:55:12;;;;;;;;;34.75;26.50;;;;;12.90;70.11;102610.81;4953474;28;45255;-59
2021/10/08 06:57:38;;;;;;;;;32.75;27.50;;;;;12.93;69.91;102609.81;4950132;28;45514;-59
2021/10/08 07:00:06;;;;;;;;;29.75;26.50;;;;;12.97;70.08;102609.66;4954390;28;45250;-60
2021/10/08 07:02:31;;;;;;;;;37.25;30.50;;;;;12.99;70.09;102614.88;4955726;28;45303;-60
2021/10/08 07:04:58;;;;;;;;;23.00;21.25;;;;;12.98;69.94;102611.38;4957568;28;45182;-60
2021/10/08 07:07:23;;;;;;;;;30.75;30.75;;;;;12.97;69.80;102611.44;4953165;28;45263;-60
2021/10/08 07:09:49;;;;;;;;;33.75;29.00;;;;;13.01;69.98;102613.03;4957545;28;45363;-59
2021/10/08 07:12:14;;;;;;;;;28.50;25.50;;;;;13.03;69.88;102614.72;4957053;28;45310;-60
2021/10/08 07:14:40;;;;;;;;;36.50;33.00;;;;;13.08;69.64;102617.16;4951171;28;45426;-59
2021/10/08 07:17:06;;;;;;;;;32.50;27.00;;;;;13.11;69.54;102620.56;4944945;28;46064;-60
2021/10/08 07:19:31;;;;;;;;;34.25;26.75;;;;;13.17;69.62;102621.22;4944726;28;45339;-60
2021/10/08 07:21:57;;;;;;;;;34.75;30.25;;;;;13.17;69.56;102627.38;4945097;28;45389;-60
2021/10/08 07:24:22;;;;;;;;;37.25;30.00;;;;;13.19;69.61;102627.31;4957775;28;45383;-60
2021/10/08 07:26:48;;;;;;;;;29.75;25.50;;;;;13.17;69.19;102624.72;4953106;28;46080;-60
2021/10/08 07:29:14;;;;;;;;;34.50;29.00;;;;;13.12;69.37;102627.56;4957411;28;45252;-59
2021/10/08 07:31:39;;;;;;;;;29.00;23.25;;;;;13.09;69.27;102625.03;4958701;28;45394;-59
2021/10/08 07:34:05;;;;;;;;;32.50;27.50;;;;;13.08;69.71;102631.25;4964029;28;45374;-59
2021/10/08 07:36:31;;;;;;;;;35.75;28.25;;;;;13.10;69.70;102629.41;4956772;28;46247;-59
2021/10/08 07:38:56;;;;;;;;;34.00;25.00;;;;;13.14;69.63;102632.78;4955882;28;45433;-59
2021/10/08 07:41:23;;;;;;;;;28.75;26.50;;;;;13.18;69.70;102629.09;4954308;28;45502;-59
2021/10/08 07:43:49;;;;;;;;;37.75;28.25;;;;;13.25;69.71;102632.38;4963164;28;45593;-59
2021/10/08 07:46:14;;;;;;;;;31.00;28.00;;;;;13.28;69.60;102634.94;4963871;28;46265;-59
2021/10/08 07:48:40;;;;;;;;;32.00;25.50;;;;;13.32;69.73;102631.22;4963534;28;45322;-59
2021/10/08 07:51:06;;;;;;;;;29.00;23.75;;;;;13.38;69.72;102631.84;4948139;28;45311;-59
2021/10/08 07:53:32;;;;;;;;;31.75;26.00;;;;;13.44;69.15;102625.44;4944808;28;45497;-59
2021/10/08 07:55:58;;;;;;;;;29.00;27.50;;;;;13.48;69.38;102626.16;4943462;28;45967;-59
2021/10/08 07:58:27;;;;;;;;;28.75;25.25;;;;;13.51;68.42;102629.56;4944407;28;45246;-59
2021/10/08 08:00:57;;;;;;;;;26.25;23.00;;;;;13.57;68.88;102626.63;4944756;28;45317;-59
2021/10/08 08:03:23;;;;;;;;;34.50;26.75;;;;;13.65;68.96;102621.03;4944585;28;45200;-59
2021/10/08 08:05:49;;;;;;;;;31.75;26.75;;;;;13.69;68.59;102627.94;4944301;28;45180;-60
2021/10/08 08:08:15;;;;;;;;;29.50;27.00;;;;;13.75;68.63;102625.03;4944291;28;45111;-59
2021/10/08 08:10:41;;;;;;;;;28.00;25.25;;;;;13.81;68.35;102616.78;4944335;28;45525;-59
2021/10/08 08:13:06;;;;;;;;;34.75;25.50;;;;;13.91;68.34;102625.22;4944089;28;45235;-59
2021/10/08 08:15:31;;;;;;;;;27.75;25.50;;;;;13.96;68.06;102620.56;4944047;28;45358;-59
2021/10/08 08:17:57;;;;;;;;;26.75;23.00;;;;;14.00;67.78;102618.66;4943980;28;45258;-59
2021/10/08 08:20:22;;;;;;;;;25.75;22.50;;;;;14.01;67.91;102615.09;4944275;28;45448;-59
2021/10/08 08:22:48;;;;;;;;;28.25;23.25;;;;;14.01;67.70;102617.75;4944220;28;45373;-59
2021/10/08 08:25:14;;;;;;;;;28.00;23.25;;;;;14.04;67.78;102622.88;4944041;28;45294;-59
2021/10/08 08:27:39;;;;;;;;;21.75;19.50;;;;;14.10;67.84;102614.69;4943874;28;45414;-59
2021/10/08 08:30:06;;;;;;;;;20.00;20.00;;;;;14.12;67.81;102621.63;4944051;28;45358;-59
2021/10/08 08:32:33;;;;;;;;;27.25;24.25;;;;;14.17;67.66;102618.78;4943835;28;45251;-59
2021/10/08 08:34:59;;;;;;;;;28.00;22.75;;;;;14.24;67.26;102623.75;4943595;28;46219;-59
2021/10/08 08:37:25;;;;;;;;;24.25;21.75;;;;;14.29;67.01;102622.66;4944002;28;45353;-59
2021/10/08 08:39:51;;;;;;;;;18.75;17.25;;;;;14.33;67.24;102629.56;4956807;28;45318;-59
2021/10/08 08:42:21;;;;;;;;;23.25;20.00;;;;;14.37;66.68;102615.22;4954122;28;45192;-59
2021/10/08 08:44:47;;;;;;;;;26.75;20.75;;;;;14.42;66.70;102626.50;4943638;28;46264;-58
2021/10/08 08:47:21;;;;;;;;;26.00;21.25;;;;;14.50;66.51;102625.25;4950610;28;45317;-58
2021/10/08 08:49:47;;;;;;;;;23.00;20.25;;;;;14.55;66.35;102624.19;4957816;28;45302;-58
2021/10/08 08:52:14;;;;;;;;;24.75;22.50;;;;;14.61;66.53;102621.22;4943770;28;45215;-59
2021/10/08 08:54:41;;;;;;;;;33.25;27.50;;;;;14.67;66.36;102626.25;4943536;28;45229;-59
2021/10/08 08:57:12;;;;;;;;;24.75;20.50;;;;;14.73;66.43;102616.22;4943686;28;45260;-59
2021/10/08 09:00:08;;;;;;;;;21.00;19.50;;;;;14.82;65.61;102614.94;4943506;28;45441;-59
2021/10/08 09:02:35;;;;;;;;;18.25;17.00;;;;;14.88;65.87;102616.44;4943639;28;45176;-59
2021/10/08 09:05:03;;;;;;;;;23.25;19.25;;;;;14.94;65.67;102608.19;4943359;28;46168;-57
2021/10/08 09:07:36;;;;;;;;;15.00;15.00;;;;;15.00;65.45;102607.88;4943326;28;45384;-58
2021/10/08 09:10:19;;;;;;;;;20.75;17.25;;;;;15.06;65.50;102611.09;4943644;28;45344;-58
2021/10/08 09:12:47;;;;;;;;;20.50;17.75;;;;;15.15;65.30;102612.47;4943570;28;45332;-57
2021/10/08 09:15:13;;;;;;;;;19.75;17.50;;;;;15.23;65.29;102610.28;4943463;28;46306;-57
2021/10/08 09:17:40;;;;;;;;;17.75;15.25;;;;;15.29;64.75;102612.66;4943267;28;45272;-58
2021/10/08 09:20:13;;;;;;;;;23.00;16.25;;;;;15.33;64.66;102606.25;4943569;28;45377;-58
2021/10/08 09:22:43;;;;;;;;;19.00;15.25;;;;;15.38;64.71;102606.00;4943333;28;45387;-58
2021/10/08 09:25:16;;;;;;;;;16.25;13.25;;;;;15.44;64.69;102599.56;4942483;28;46492;-58
2021/10/08 09:27:45;;;;;;;;;14.00;14.00;;;;;15.55;64.65;102603.38;4943399;28;45369;-58
2021/10/08 09:30:11;;;;;;;;;17.50;13.75;;;;;15.64;64.17;102602.09;4943235;28;45299;-58
2021/10/08 09:32:44;;;;;;;;;12.50;12.00;;;;;15.69;63.72;102596.53;4943105;28;45179;-58
2021/10/08 09:35:11;;;;;;;;;19.50;13.00;;;;;15.78;63.84;102596.06;4942701;28;45548;-58
2021/10/08 09:37:37;;;;;;;;;18.00;15.00;;;;;15.89;63.75;102599.91;4944404;28;45273;-58
2021/10/08 09:40:05;;;;;;;;;17.75;12.25;;;;;15.95;63.55;102598.69;4961493;28;45342;-57
2021/10/08 09:42:35;;;;;;;;;16.25;12.50;;;;;16.01;63.31;102593.06;4951181;28;45249;-57
2021/10/08 09:45:03;;;;;;;;;14.00;12.50;;;;;16.07;63.39;102589.25;4942688;28;46296;-63
2021/10/08 09:47:29;;;;;;;;;17.75;14.25;;;;;16.13;63.03;102592.44;4942877;28;45492;-61
2021/10/08 09:50:15;;;;;;;;;12.75;11.75;;;;;16.18;62.28;102582.41;4945502;28;45572;-60
2021/10/08 09:52:40;;;;;;;;;11.75;8.25;;;;;16.24;62.00;102583.03;4954024;28;45576;-64
2021/10/08 09:55:09;;;;;;;;;9.50;9.00;;;;;16.32;61.73;102583.47;4961443;28;46002;-64
2021/10/08 09:57:47;;;;;;;;;8.50;8.50;;;;;16.37;61.06;102576.97;4950898;28;45177;-64
2021/10/08 10:00:43;;;;;;;;;6.75;6.25;;;;;16.46;61.16;102575.59;4943562;28;45477;-64
2021/10/08 10:03:11;;;;;;;;;7.00;7.00;;;;;16.55;60.60;102577.75;4942366;28;45485;-67
2021/10/08 10:05:37;;;;;;;;;11.50;8.25;;;;;16.63;60.50;102580.84;4942495;28;45337;-63
2021/10/08 10:08:03;;;;;;;;;11.75;10.50;;;;;16.67;59.91;102579.75;4942449;28;45205;-63
2021/10/08 10:10:30;;;;;;;;;13.50;9.00;;;;;16.71;60.08;102573.31;4942136;28;45284;-65
2021/10/08 10:12:59;;;;;;;;;12.75;12.75;;;;;16.77;59.95;102565.97;4942044;28;45168;-65
2021/10/08 10:15:24;;;;;;;;;19.75;16.25;;;;;16.83;59.76;102568.28;4942163;28;45325;-62
2021/10/08 10:17:50;;;;;;;;;15.00;11.50;;;;;16.89;59.78;102559.91;4941770;28;45500;-63
2021/10/08 10:20:16;;;;;;;;;9.25;6.25;;;;;16.94;59.60;102557.88;4952314;28;45425;-65
2021/10/08 10:22:42;;;;;;;;;6.75;6.50;;;;;16.99;59.61;102562.00;4954069;28;45542;-65
2021/10/08 10:25:11;;;;;;;;;7.75;7.25;;;;;17.06;59.37;102549.16;4969132;28;46531;-63
2021/10/08 10:27:40;;;;;;;;;9.00;8.00;;;;;17.11;58.97;102555.09;4952708;28;45451;-65
2021/10/08 10:30:07;;;;;;;;;8.50;8.00;;;;;17.15;58.90;102545.13;4951128;28;45326;-64
2021/10/08 10:32:34;;;;;;;;;8.50;7.75;;;;;17.20;58.63;102546.56;4954484;28;45395;-63
2021/10/08 10:35:03;;;;;;;;;6.75;6.75;;;;;17.25;58.77;102546.31;4952586;28;46187;-61
2021/10/08 10:37:42;;;;;;;;;5.25;3.50;;;;;17.29;57.19;102554.00;4956093;28;45784;-63
2021/10/08 10:40:19;;;;;;;;;6.00;5.00;;;;;17.33;57.06;102552.03;4957252;28;45310;-61
2021/10/08 10:43:14;;;;;;;;;8.00;6.00;;;;;17.37;57.00;102550.03;4953389;28;45167;-61
2021/10/08 10:45:47;;;;;;;;;6.75;5.00;;;;;17.39;57.15;102554.34;4956881;28;46262;-63
2021/10/08 10:48:27;;;;;;;;;5.00;4.00;;;;;17.45;56.95;102551.28;4955398;28;45268;-64
2021/10/08 10:51:20;;;;;;;;;5.50;5.50;;;;;17.49;57.02;102541.34;4956174;28;45472;-63
2021/10/08 10:53:53;;;;;;;;;14.25;11.75;;;;;17.56;56.85;102540.88;4953601;28;45522;-62
2021/10/08 10:56:37;;;;;;;;;6.50;5.00;;;;;17.60;57.01;102546.88;4953401;28;46439;-63
2021/10/08 10:59:25;;;;;;;;;52.50;39.50;;;;;17.66;56.72;102545.66;4953705;28;45312;-66
2021/10/08 11:04:32;;;;;;;;;7.00;6.75;;;;;17.76;56.53;102542.34;4954787;28;45538;-66
2021/10/08 11:07:06;;;;;;;;;6.00;5.00;;;;;17.82;56.21;102541.13;4955552;28;46312;-65
2021/10/08 11:09:31;;;;;;;;;5.75;5.00;;;;;17.89;56.34;102539.81;4951710;28;45322;-63
2021/10/08 11:12:41;;;;;;;;;6.00;4.50;;;;;17.95;55.78;102536.78;4953766;28;45377;-65
2021/10/08 11:15:22;;;;;;;;;5.00;4.00;;;;;18.00;55.79;102533.78;4954202;28;45461;-61